AirNav   TITAN Aviation Fuels
 
 739 users online  

KNHU Norfolk Naval Station Airport
Norfolk, Virginia, USA


FAA INFORMATION EFFECTIVE 08 SEPTEMBER 2022

Location

FAA Identifier: NHU
Lat/Long: 36-57-20.3500N 076-18-13.5250W
36-57.339167N 076-18.225417W
36.9556528,-76.3037569
(estimated)
Elevation: 10 ft. / 3 m (estimated)
Variation: 10W (1990)
From city: 7 miles N of NORFOLK, VA
Time zone: UTC -4 (UTC -5 during Standard Time)
Zip code: 23511

Airport Operations

Airport use: Private use. Permission required prior to landing
Activation date: 04/2021
Control tower: yes
ARTCC: WASHINGTON CENTER
FSS: LEESBURG FLIGHT SERVICE STATION
Attendance: 
Wind indicator: yes
Segmented circle: no

Airport Communications

WX ASOS at ORF (6 nm SE): PHONE 757-460-9348
WX AWOS-3PT at PVG (13 nm SW): 118.375 (757-465-2175)
WX ASOS at PHF (14 nm NW): PHONE 757-874-3682
WX ASOS at NTU (15 nm SE): PHONE DSN 433-3619 or 757-433-3619
WX AWOS-3 at CPK (17 nm S): 123.675 (757-204-4290)

Nearby radio navigation aids

VOR radial/distance  VOR name  Freq  Var
ORFr315/6.3NORFOLK VORTAC116.9007W
CCVr222/27.7CAPE CHARLES VORTAC112.2010W
HCMr154/35.4HARCUM VORTAC108.8007W
FKNr076/37.0FRANKLIN VORTAC110.6009W

 
NDB name  Hdg/Dist  Freq  Var  ID
INGLE349/7.432909WOR --- .-.
WAKEFIELD104/33.527411WAKQ .- -.- --.-

Airport Services

Runway Information

Runway 9/27

Dimensions: 1705 x 150 ft. / 520 x 46 m
Surface: asphalt, in excellent condition
RUNWAY 9  RUNWAY 27
Latitude: 36-57.329667N36-57.348667N
Longitude: 076-18.400167W076-18.050667W
Elevation: 8.8 ft.9.1 ft.
Traffic pattern: leftleft
Runway heading: 096 magnetic, 086 true276 magnetic, 266 true
Touchdown point: yes, no lightsyes, no lights

Helipad H3

Dimensions: 120 x 120 ft. / 37 x 37 m
Surface: concrete, in excellent condition
Latitude: 36-57.258000N
Longitude: 076-18.326667W
Elevation: 9.4 ft.
Traffic pattern: leftleft

Helipad H4

Dimensions: 120 x 120 ft. / 37 x 37 m
Surface: concrete, in excellent condition
Latitude: 36-57.208667N
Longitude: 076-18.322667W
Elevation: 8.2 ft.
Traffic pattern: leftleft

Helipad H5

Dimensions: 120 x 120 ft. / 37 x 37 m
Surface: concrete, in excellent condition
Latitude: 36-57.012667N
Longitude: 076-16.665667W
Elevation: 8.7 ft.
Traffic pattern: leftleft

Helipad H6

Dimensions: 120 x 120 ft. / 37 x 37 m
Surface: concrete, in excellent condition
Latitude: 36-56.975667N
Longitude: 076-16.807667W
Elevation: 8.9 ft.
Traffic pattern: leftleft

Helipad H7

Dimensions: 120 x 120 ft. / 37 x 37 m
Surface: concrete, in excellent condition
Latitude: 36-56.938000N
Longitude: 076-16.936167W
Elevation: 8.7 ft.
Traffic pattern: leftleft

Helipad H8

Dimensions: 120 x 120 ft. / 37 x 37 m
Surface: concrete, in excellent condition
Latitude: 36-56.852833N
Longitude: 076-17.201500W
Elevation: 9.0 ft.
Traffic pattern: leftleft

Helipad H9

Dimensions: 120 x 120 ft. / 37 x 37 m
Surface: concrete, in excellent condition
Latitude: 36-56.900500N
Longitude: 076-17.642833W
Elevation: 9.4 ft.
Traffic pattern: leftleft

Helipad H1

Dimensions: 75 x 75 ft. / 23 x 23 m
Surface: asphalt, in excellent condition
Latitude: 36-57.346000N
Longitude: 076-18.101667W
Elevation: 9.1 ft.
Traffic pattern: leftleft

Helipad H2

Dimensions: 75 x 75 ft. / 23 x 23 m
Surface: asphalt, in excellent condition
Latitude: 36-57.333000N
Longitude: 076-18.321667W
Elevation: 8.8 ft.
Traffic pattern: leftleft

Airport Ownership and Management from official FAA records

Ownership: U.S. Navy
Owner: NAVAL STATION NORFOLK
1530 GILBERT ST STE 2000
NORFOLK, VA 23511
Phone 757-322-2302
Manager: SHANE DUDLEY
8610 AIR CARGO ROAD
NORFOLK, VA 23511
Phone 757-322-3420

Instrument Procedures

NOTE: All procedures below are presented as PDF files. If you need a reader for these files, you should download the free Adobe Reader.

NOT FOR NAVIGATION. Please procure official charts for flight.
FAA instrument procedures published for use from 8 September 2022 at 0901Z to 6 October 2022 at 0900Z.

 
IAPs - Instrument Approach Procedures
COPTER RNAV (GPS) 141 **CHANGED**   download (121KB)
COPTER RNAV (GPS) 276 **CHANGED**   download (116KB)
 
Departure Procedures
COPTER PRIDE ONE   2 pages: [1] [2] (228KB)
NOTE: Special Take-Off Minimums/Departure Procedures apply   download (356KB)

Other nearby airports with instrument procedures:

KNGU - Norfolk Naval Station (Chambers Field) (1 nm SE)
KORF - Norfolk International Airport (6 nm SE)
KLFI - Langley Air Force Base (8 nm N)
KPVG - Hampton Roads Executive Airport (13 nm SW)
KPHF - Newport News/Williamsburg International Airport (14 nm NW)
KNTU - Oceana Naval Air Station (Apollo Soucek Field) (15 nm SE)
KCPK - Chesapeake Regional Airport (17 nm S)
KFAF - Felker Army Airfield (18 nm NW)
 
Loc | Ops | Rwys | IFR | FBO | Links
Com | Nav | Svcs | Stats | Notes
Aerial photo
No photo
 
Airport distance calculator
Flying to Norfolk Naval Station Airport? Find the distance to fly.

From to KNHU

Sunrise and sunset
Times for 05-Oct-2022
 Local
(UTC-4)
 Zulu
(UTC)
Morning civil twilight06:3910:39
Sunrise07:0511:05
Sunset18:4222:42
Evening civil twilight19:0823:08

Current date and time
Zulu (UTC)  05-Oct-2022 06:12:10
Local (UTC-4)  05-Oct-2022 02:12:10
 
METAR
KNGU 
3nm SE 
050559Z 30013KT 10SM OVC009 12/09 A2991 RMK AO2 SLP129 60000 T01170094 10122 20117 56008
KORF 
6nm SE 
050551Z 29006KT 9SM OVC008 11/11 A2990 RMK AO2 SLP124 60002 T01060106 10111 20106 56008
KLFI 
7nm NW 
050455Z AUTO 32007KT 4SM -DZ OVC006 11/11 A2990 RMK AO2 DZB21 SLP132 P0001 T01070105 401220090 $
KPVG 
13nm SW 
050556Z AUTO VRB04KT 3SM -RA BR BKN006 OVC010 10/10 A2992 RMK AO2 CIG 003V007 SLP134 6//// T01000100 10106 20100 58007 PNO $
KPHF 
14nm NW 
050554Z AUTO 30009KT 10SM OVC009 10/09 A2991 RMK AO2 CIG 006V014 SLP127 60000 T01000094 10106 20100 56008
KNTU 
16nm SE 
050556Z 29008KT 2 1/2SM BR BKN006 OVC012 11/11 A2988 RMK AO2 SLP121 60000 T01060106 10111 20106 58009
KCPK 
17nm S 
050555Z AUTO 28006KT 10/10 A2991 RMK AO2 60001 T01030095 10110 20102
KNFE 
18nm SE 
050556Z AUTO VRB04KT 4SM BR OVC005 12/10 A2990 RMK AO2 RAB14E20 SLP127 P0001 60002 T01170100 10122 20117 58010
KFAF 
18nm NW 
050455Z AUTO 31010G17KT 10SM OVC008 11/09 A2990 RMK AO2 SLP129 T01110092 401230092 $
TAF
KNGU 
3nm SE 
0423/0523 32012G20KT 9999 SCT012 OVC025 520009 QNH2984INS TEMPO 0423/0505 6000 RA BR OVC007 FM050500 31008G15KT 9999 OVC009 520009 QNH2983INS TEMPO 0505/0511 28012G24KT 4800 -RA BR OVC003 FM051800 33009G16KT 9999 BKN020 OVC050 500000 QNH2989INS T12/0502Z T17/0520Z FN20067
KORF 
6nm SE 
050537Z 0506/0606 29009KT 3SM -RA BR BKN008 OVC015 FM051100 30011KT 5SM -RADZ BR OVC008 FM051600 32012G18KT P6SM OVC010 FM052100 34011KT P6SM OVC020 FM060300 35005KT P6SM BKN035
KLFI 
7nm NW 
050100Z 0501/0607 30010G15KT 8000 DZ BR SCT003 OVC010 QNH2993INS TEMPO 0510/0512 30015G20KT 8000 -RA BR OVC002 BECMG 0512/0513 30015G20KT 9999 NSW OVC003 QNH2986INS BECMG 0603/0604 32012KT 9999 SCT004 OVC010 QNH2993INS TX16/0518Z TN11/0501Z
KPHF 
14nm NW 
050537Z 0506/0606 30010KT 3SM -RA OVC009 FM051100 31011KT 5SM -RADZ BR OVC008 FM051600 31011G18KT P6SM OVC012 FM052100 33011KT P6SM BKN020 FM060100 34005KT P6SM BKN035
KNTU 
16nm SE 
0505/0523 32012G20KT 9999 BKN015 OVC025 520009 QNH2985INS TEMPO 0505/0506 4800 DZ BR OVC008 FM050600 30010G18KT 9999 OVC015 520009 QNH2983INS TEMPO 0506/0512 6000 DZ BR OVC006 FM051400 32012G20KT 9999 BKN015 OVC040 520009 QNH2990INS T11/0505Z T17/0520Z AMD 0530 FN00247
KFAF 
18nm NW 
050303Z 0503/0608 30009KT 9999 OVC010 QNH2988INS BECMG 0505/0506 30012G18KT 9000 -DZ BR OVC010 QNH2988INS BECMG 0510/0511 31010G15KT 9999 NSW OVC010 QNH2989INS BECMG 0522/0523 31009KT 9999 OVC010 QNH2991INS TX14/0522Z TN10/0505Z LAST NO AMDS AFT 0503 NEXT 0510
NOTAMs
Click for the latest NOTAMs
NOTAMs are issued by the DoD/FAA and will open in a separate window not controlled by AirNav.

 

 
 

Would you like to see your business listed on this page?

 If your business provides an interesting product or service to pilots, flight crews, aircraft, or users of the Norfolk Naval Station Airport, you should consider listing it here.  To start the listing process, click on the button below
 
Add a business
 

Other Pages about Norfolk Naval Station Airport

Update a link
 
Copyright © AirNav, LLC. All rights reserved. Privacy Policy  Contact